United Spirit — ELYB2 — position and weather

sailwx.info

Track history (hours):
 
Tides and Currents Weather Stations Pressure Air Temp Water Temp Dewpoint Dewpoint Depression Visibility Wind Speed Wind Dir Waves Ship Positions

United Spirit

Last reported at 2016-Feb-09 05:04 UTC. Time now 2016-Feb-14 08:12 UTC.
Position S 32°25' E 152°44'.

Type: Cargo ship. MMSI: 636011280.

Date/timePositionNaut miles runAvg speedWind from/ knotsBaromVisibWave heightAir tempDewpointWater temp
2016-Feb-09 05:04S 32°25' E 152°44'816.1
2016-Feb-09 04:34S 32°32' E 152°39'1616.0
2016-Feb-09 03:34S 32°46' E 152°30'1616.1
2016-Feb-09 02:34S 32°60' E 152°20'21217.6
2016-Feb-08 14:30S 36°09' E 150°24'1617.1
2016-Feb-08 13:33S 36°25' E 150°19'1716.9
2016-Feb-08 12:34S 36°41' E 150°16'1716.7
2016-Feb-08 11:34S 36°58' E 150°13'1616.1
2016-Feb-08 10:33S 37°14' E 150°09'1616.4
2016-Feb-08 09:33S 37°30' E 150°05'1615.8
2016-Feb-08 08:33S 37°42' E 149°53'1817.6
2016-Feb-08 07:34S 37°54' E 149°36'1717.2
2016-Feb-08 06:33S 38°05' E 149°19'1717.4
2016-Feb-08 05:34S 38°16' E 149°03'1717.0
2016-Feb-08 04:34S 38°27' E 148°46'1817.1
2016-Feb-08 03:29S 38°38' E 148°28'1617.4
2016-Feb-08 02:33S 38°47' E 148°11'1717.1
2016-Feb-08 01:33S 38°54' E 147°50'2416.9
2016-Feb-08 00:08S 39°02' E 147°21'1016.6
2016-Feb-07 23:33S 39°06' E 147°09'1716.7
2016-Feb-07 22:33S 39°12' E 146°49'1717.1
2016-Feb-07 21:34S 39°17' E 146°29'1616.3
2016-Feb-07 20:34S 39°13' E 146°08'1817.7
2016-Feb-07 19:34S 39°04' E 145°49'4217.5
2016-Feb-07 17:10S 38°42' E 145°03'1117.3
2016-Feb-07 16:32S 38°36' E 144°51'1717.2
2016-Feb-07 15:32S 38°24' E 144°35'2310.2
2016-Feb-07 13:14S 38°07' E 144°55'17 0.9
2016-Feb-06 18:28S 38°17' E 144°39'8 8.9
2016-Feb-06 17:33S 38°24' E 144°34'10 9.7
2016-Feb-06 16:33S 38°31' E 144°43'1815.5
2016-Feb-06 15:25S 38°41' E 145°02'1517.3
2016-Feb-06 14:33S 38°48' E 145°18'1817.4
2016-Feb-06 13:31S 38°57' E 145°39'1717.5
2016-Feb-06 12:33S 39°05' E 145°58'1717.1
2016-Feb-06 11:33S 39°12' E 146°18'1817.9
2016-Feb-06 10:33S 39°07' E 146°40'1818.1
2016-Feb-06 09:33S 39°02' E 147°02'1918.8
2016-Feb-06 08:33S 38°56' E 147°25'2019.0
2016-Feb-06 07:29S 38°49' E 147°50'1718.8
2016-Feb-06 06:33S 38°44' E 148°11'1817.7
2016-Feb-06 05:33S 38°36' E 148°32'1717.5
2016-Feb-06 04:33S 38°25' E 148°49'1817.7
2016-Feb-06 03:33S 38°14' E 149°06'1817.8
2016-Feb-06 02:33S 38°02' E 149°23'1817.7
2016-Feb-06 01:33S 37°51' E 149°41'1817.6
2016-Feb-06 00:33S 37°39' E 149°58'1716.9
2016-Feb-05 23:33S 37°24' E 150°06'1818.2
2016-Feb-05 22:33S 37°06' E 150°10'1818.0
2016-Feb-05 21:33S 36°48' E 150°14'1817.8
2016-Feb-05 20:33S 36°30' E 150°16'1817.7
2016-Feb-05 19:33S 36°13' E 150°22'201 5.9
2016-Feb-04 09:33S 33°12' E 152°08'1212.5
2016-Feb-04 08:33S 33°02' E 152°16'1413.7
2016-Feb-04 07:34S 32°50' E 152°25'1514.6
2016-Feb-04 06:33S 32°38' E 152°34'27418.2
2016-Feb-03 15:32S 28°11' E 153°45'1818.5
2016-Feb-03 14:33S 27°53' E 153°43'1817.9
2016-Feb-03 13:33S 27°35' E 153°42'1918.2
2016-Feb-03 12:32S 27°17' E 153°40'25 4.8
2016-Feb-03 07:21S 27°18' E 153°13'5 4.5
2016-Feb-03 06:14S 27°23' E 153°10'0 0.1
2016-Feb-03 05:32S 27°23' E 153°10'0 0.1
2016-Feb-03 04:32S 27°23' E 153°10'0 0.0
2016-Feb-03 03:17S 27°23' E 153°10'0 0.0
2016-Feb-03 01:17S 27°23' E 153°10'0 0.0
2016-Feb-02 22:20S 27°23' E 153°10'0 0.0
2016-Feb-02 21:32S 27°23' E 153°10'  
Track history (hours):
 
Tides and Currents Weather Stations Pressure Air Temp Water Temp Dewpoint Dewpoint Depression Visibility Wind Speed Wind Dir Waves Ship Positions

United Spirit

Last reported at 2016-Feb-09 05:04 UTC. Time now 2016-Feb-14 08:12 UTC.
Position S 32°25' E 152°44'.

Type: Cargo ship. MMSI: 636011280.

Date/timePositionNaut miles runAvg speedWind from/ knotsBaromVisibWave heightAir tempDewpointWater temp
2016-Feb-09 05:04S 32°25' E 152°44'816.1
2016-Feb-09 04:34S 32°32' E 152°39'1616.0
2016-Feb-09 03:34S 32°46' E 152°30'1616.1
2016-Feb-09 02:34S 32°60' E 152°20'21217.6
2016-Feb-08 14:30S 36°09' E 150°24'1617.1
2016-Feb-08 13:33S 36°25' E 150°19'1716.9
2016-Feb-08 12:34S 36°41' E 150°16'1716.7
2016-Feb-08 11:34S 36°58' E 150°13'1616.1
2016-Feb-08 10:33S 37°14' E 150°09'1616.4
2016-Feb-08 09:33S 37°30' E 150°05'1615.8
2016-Feb-08 08:33S 37°42' E 149°53'1817.6
2016-Feb-08 07:34S 37°54' E 149°36'1717.2
2016-Feb-08 06:33S 38°05' E 149°19'1717.4
2016-Feb-08 05:34S 38°16' E 149°03'1717.0
2016-Feb-08 04:34S 38°27' E 148°46'1817.1
2016-Feb-08 03:29S 38°38' E 148°28'1617.4
2016-Feb-08 02:33S 38°47' E 148°11'1717.1
2016-Feb-08 01:33S 38°54' E 147°50'2416.9
2016-Feb-08 00:08S 39°02' E 147°21'1016.6
2016-Feb-07 23:33S 39°06' E 147°09'1716.7
2016-Feb-07 22:33S 39°12' E 146°49'1717.1
2016-Feb-07 21:34S 39°17' E 146°29'1616.3
2016-Feb-07 20:34S 39°13' E 146°08'1817.7
2016-Feb-07 19:34S 39°04' E 145°49'4217.5
2016-Feb-07 17:10S 38°42' E 145°03'1117.3
2016-Feb-07 16:32S 38°36' E 144°51'1717.2
2016-Feb-07 15:32S 38°24' E 144°35'2310.2
2016-Feb-07 13:14S 38°07' E 144°55'17 0.9
2016-Feb-06 18:28S 38°17' E 144°39'8 8.9
2016-Feb-06 17:33S 38°24' E 144°34'10 9.7
2016-Feb-06 16:33S 38°31' E 144°43'1815.5
2016-Feb-06 15:25S 38°41' E 145°02'1517.3
2016-Feb-06 14:33S 38°48' E 145°18'1817.4
2016-Feb-06 13:31S 38°57' E 145°39'1717.5
2016-Feb-06 12:33S 39°05' E 145°58'1717.1
2016-Feb-06 11:33S 39°12' E 146°18'1817.9
2016-Feb-06 10:33S 39°07' E 146°40'1818.1
2016-Feb-06 09:33S 39°02' E 147°02'1918.8
2016-Feb-06 08:33S 38°56' E 147°25'2019.0
2016-Feb-06 07:29S 38°49' E 147°50'1718.8
2016-Feb-06 06:33S 38°44' E 148°11'1817.7
2016-Feb-06 05:33S 38°36' E 148°32'1717.5
2016-Feb-06 04:33S 38°25' E 148°49'1817.7
2016-Feb-06 03:33S 38°14' E 149°06'1817.8
2016-Feb-06 02:33S 38°02' E 149°23'1817.7
2016-Feb-06 01:33S 37°51' E 149°41'1817.6
2016-Feb-06 00:33S 37°39' E 149°58'1716.9
2016-Feb-05 23:33S 37°24' E 150°06'1818.2
2016-Feb-05 22:33S 37°06' E 150°10'1818.0
2016-Feb-05 21:33S 36°48' E 150°14'1817.8
2016-Feb-05 20:33S 36°30' E 150°16'1817.7
2016-Feb-05 19:33S 36°13' E 150°22'201 5.9
2016-Feb-04 09:33S 33°12' E 152°08'1212.5
2016-Feb-04 08:33S 33°02' E 152°16'1413.7
2016-Feb-04 07:34S 32°50' E 152°25'1514.6
2016-Feb-04 06:33S 32°38' E 152°34'27418.2
2016-Feb-03 15:32S 28°11' E 153°45'1818.5
2016-Feb-03 14:33S 27°53' E 153°43'1817.9
2016-Feb-03 13:33S 27°35' E 153°42'1918.2
2016-Feb-03 12:32S 27°17' E 153°40'25 4.8
2016-Feb-03 07:21S 27°18' E 153°13'5 4.5
2016-Feb-03 06:14S 27°23' E 153°10'0 0.1
2016-Feb-03 05:32S 27°23' E 153°10'0 0.1
2016-Feb-03 04:32S 27°23' E 153°10'0 0.0
2016-Feb-03 03:17S 27°23' E 153°10'0 0.0
2016-Feb-03 01:17S 27°23' E 153°10'0 0.0
2016-Feb-02 22:20S 27°23' E 153°10'0 0.0
2016-Feb-02 21:32S 27°23' E 153°10'  

Dump ship's entire track history